createdAt,value
2023-03-22T00:01:12.377Z,4.8
2023-03-22T00:03:14.373Z,5.2
2023-03-22T00:10:23.410Z,4.5
2023-03-22T00:16:33.031Z,4.1
2023-03-22T00:22:39.187Z,5.3
2023-03-22T00:26:46.568Z,5.6
2023-03-22T00:28:48.679Z,4.6
2023-03-22T00:32:52.983Z,5.9
2023-03-22T00:34:55.051Z,4.8
2023-03-22T00:41:04.542Z,3.9
2023-03-22T00:51:15.154Z,3.8
2023-03-22T00:55:22.633Z,4.8
2023-03-22T00:57:24.761Z,3.7
2023-03-22T01:02:31.595Z,4.3
2023-03-22T01:04:33.712Z,3.7
2023-03-22T01:10:43.180Z,3
2023-03-22T01:12:45.290Z,2.9
2023-03-22T01:14:47.436Z,2.9
2023-03-22T01:20:53.771Z,2.6
2023-03-22T01:22:59.139Z,2.5
2023-03-22T01:27:03.250Z,3
2023-03-22T01:29:05.304Z,3.4
2023-03-22T01:31:07.472Z,3
2023-03-22T01:37:17.026Z,3.7
2023-03-22T01:43:23.427Z,3.2
2023-03-22T01:45:25.479Z,3.2
2023-03-22T01:47:27.632Z,3
2023-03-22T01:49:29.717Z,3
2023-03-22T01:53:37.223Z,2.7
2023-03-22T01:55:39.354Z,2.6
2023-03-22T01:58:08.195Z,3.2
2023-03-22T02:00:10.265Z,2.4
2023-03-22T02:02:12.326Z,2.6
2023-03-22T02:04:17.709Z,2.5
2023-03-22T02:06:19.822Z,2.7
2023-03-22T02:08:21.973Z,3.3
2023-03-22T02:10:24.083Z,3.5
2023-03-22T02:12:26.205Z,2.2
2023-03-22T02:14:28.299Z,3.1
2023-03-22T02:18:35.796Z,3.4
2023-03-22T02:20:38.195Z,3.8
2023-03-22T02:22:40.005Z,2.8
2023-03-22T02:24:43.966Z,2.8
2023-03-22T02:26:44.262Z,2.4
2023-03-22T02:32:53.861Z,3.4
2023-03-22T02:39:00.242Z,3.1
2023-03-22T02:41:02.382Z,3.2
2023-03-22T02:43:04.408Z,3.4
2023-03-22T02:45:06.523Z,3.8
2023-03-22T02:47:11.908Z,4.3
2023-03-22T02:49:15.568Z,4.2
2023-03-22T02:51:17.625Z,4.6
2023-03-22T02:56:24.473Z,5.6
2023-03-22T03:00:31.991Z,6.3
2023-03-22T03:02:34.051Z,6.5
2023-03-22T03:12:44.635Z,8.5
2023-03-22T03:14:50.006Z,9.1
2023-03-22T03:16:52.221Z,10.6
2023-03-22T03:18:54.236Z,10.4
2023-03-22T03:20:56.345Z,9.7
2023-03-22T03:22:58.506Z,10.2
2023-03-22T03:25:00.607Z,9.6
2023-03-22T03:27:03.216Z,9.7
2023-03-22T03:31:10.249Z,10.2
2023-03-22T03:37:16.542Z,11.2
2023-03-22T03:41:20.809Z,11.6
2023-03-22T03:43:26.152Z,12
2023-03-22T03:45:28.285Z,9.5
2023-03-22T03:47:30.341Z,10.1
2023-03-22T03:48:32.988Z,12.3
2023-03-22T03:50:35.144Z,10.2
2023-03-22T03:52:37.181Z,10.4
2023-03-22T03:54:39.309Z,10.2
2023-03-22T03:56:44.714Z,10.3
2023-03-22T03:58:46.822Z,9.3
2023-03-22T04:00:48.955Z,10
2023-03-22T04:02:51.095Z,10.4
2023-03-22T04:04:53.213Z,9.2
2023-03-22T04:06:55.352Z,10.1
2023-03-22T04:08:57.473Z,9.1
2023-03-22T04:11:02.841Z,10.1
2023-03-22T04:13:04.951Z,10.4
2023-03-22T04:15:07.016Z,8.5
2023-03-22T04:19:11.292Z,8.4
2023-03-22T04:21:13.410Z,10.1
2023-03-22T04:23:15.531Z,9.6
2023-03-22T04:25:20.922Z,9.8
2023-03-22T04:27:23.076Z,10.1
2023-03-22T04:29:25.176Z,10.1
2023-03-22T04:31:27.391Z,9.2
2023-03-22T04:33:29.448Z,10.4
2023-03-22T04:35:31.584Z,10.2
2023-03-22T04:37:33.629Z,9.5
2023-03-22T04:39:38.974Z,8.9
2023-03-22T04:43:43.160Z,9.7
2023-03-22T04:44:45.823Z,11.7
2023-03-22T04:46:47.902Z,9.5
2023-03-22T04:48:50.008Z,9.7
2023-03-22T04:50:52.130Z,8.5
2023-03-22T04:52:57.500Z,9.7
2023-03-22T04:54:59.632Z,9.4
2023-03-22T04:57:01.783Z,9.6
2023-03-22T04:59:03.923Z,8.6
2023-03-22T05:01:06.047Z,7.9
2023-03-22T05:03:08.256Z,8.9
2023-03-22T05:05:10.269Z,9.5
2023-03-22T05:07:15.641Z,9.7
2023-03-22T05:09:17.777Z,8.3
2023-03-22T05:11:19.884Z,8.9
2023-03-22T05:13:21.999Z,9.9
2023-03-22T05:15:24.161Z,7.2
2023-03-22T05:21:33.648Z,7.8
2023-03-22T05:31:44.223Z,7.1
2023-03-22T05:33:46.308Z,7.7
2023-03-22T05:35:51.702Z,6.4
2023-03-22T05:37:53.821Z,7.7
2023-03-22T05:39:55.919Z,6.9
2023-03-22T05:42:24.781Z,5.9
2023-03-22T05:50:36.469Z,5.8
2023-03-22T05:54:40.637Z,5.2
2023-03-22T05:58:44.879Z,6.5
2023-03-22T06:02:52.417Z,6.6
2023-03-22T06:11:00.907Z,5.9
2023-03-22T06:13:03.067Z,4.5
2023-03-22T06:17:10.497Z,5.1
2023-03-22T06:19:12.592Z,5.2
2023-03-22T06:21:14.723Z,5.6
2023-03-22T06:23:16.854Z,5.9
2023-03-22T06:25:18.955Z,4.3
2023-03-22T06:27:21.079Z,5.5
2023-03-22T06:29:23.190Z,4.8
2023-03-22T06:31:28.530Z,4.9
2023-03-22T06:33:30.663Z,4.7
2023-03-22T06:36:35.445Z,4.7
2023-03-22T06:38:37.589Z,5.1
2023-03-22T06:40:40.055Z,4.2
2023-03-22T06:42:41.805Z,4.3
2023-03-22T06:44:47.187Z,4.5
2023-03-22T06:48:51.396Z,4.2
2023-03-22T06:50:53.544Z,3.7
2023-03-22T06:52:55.654Z,4.2
2023-03-22T06:54:57.766Z,4
2023-03-22T06:56:59.894Z,5
2023-03-22T06:59:05.235Z,4.2
2023-03-22T07:01:07.407Z,4.2
2023-03-22T07:03:09.453Z,4.2
2023-03-22T07:05:11.564Z,4.3
2023-03-22T07:07:13.597Z,6.2
2023-03-22T07:23:33.870Z,2.7
2023-03-22T07:25:36.021Z,3.6
2023-03-22T07:27:41.405Z,5.1
2023-03-22T07:29:43.507Z,3.4
2023-03-22T07:31:45.809Z,3.7
2023-03-22T07:32:48.324Z,3
2023-03-22T07:34:50.448Z,4.7
2023-03-22T07:36:52.824Z,2.8
2023-03-22T07:38:54.744Z,2.1
2023-03-22T07:41:00.135Z,3.5
2023-03-22T07:43:02.176Z,2
2023-03-22T07:45:04.370Z,3.5
2023-03-22T07:47:06.429Z,2.7
2023-03-22T07:51:10.714Z,2.5
2023-03-22T07:53:12.860Z,3
2023-03-22T07:57:20.044Z,3.1
2023-03-22T08:01:24.367Z,3.1
2023-03-22T08:07:30.793Z,2.9
2023-03-22T08:09:36.082Z,3.3
2023-03-22T08:11:38.101Z,2.2
2023-03-22T08:13:40.132Z,3.1
2023-03-22T08:15:42.238Z,3.3
2023-03-22T08:17:44.301Z,2.5
2023-03-22T08:19:46.338Z,3.9
2023-03-22T08:21:48.501Z,3.5
2023-03-22T08:31:02.596Z,3.1
2023-03-22T08:33:04.746Z,3.1
2023-03-22T08:35:06.885Z,3
2023-03-22T08:37:12.152Z,2.9
2023-03-22T08:39:14.315Z,2.9
2023-03-22T08:41:18.003Z,2.5
2023-03-22T08:43:20.007Z,3.9
2023-03-22T08:45:22.124Z,3.3
2023-03-22T08:47:24.076Z,2.5
2023-03-22T08:49:26.235Z,3.2
2023-03-22T08:51:31.520Z,3.4
2023-03-22T08:53:33.695Z,2.6
2023-03-22T08:55:35.815Z,3
2023-03-22T08:57:38.939Z,2.8
2023-03-22T08:59:40.091Z,3
2023-03-22T09:01:42.269Z,3.3
2023-03-22T09:03:44.305Z,3.4
2023-03-22T09:07:51.744Z,3.3
2023-03-22T09:11:55.925Z,3.1
2023-03-22T09:13:58.025Z,3
2023-03-22T09:16:00.287Z,3.2
2023-03-22T09:18:02.297Z,2.5
2023-03-22T09:20:12.965Z,3.4
2023-03-22T09:22:09.626Z,3.8
2023-03-22T09:24:11.770Z,3.5
2023-03-22T09:26:40.468Z,3.1
2023-03-22T09:28:42.547Z,2.1
2023-03-22T09:30:44.796Z,3.6
2023-03-22T09:32:49.941Z,2.5
2023-03-22T09:34:51.979Z,3.2
2023-03-22T09:36:55.711Z,2.8
2023-03-22T09:38:56.108Z,3.2
2023-03-22T09:40:58.165Z,2.3
2023-03-22T09:43:00.234Z,3.2
2023-03-22T09:45:02.261Z,2.9
2023-03-22T09:47:07.451Z,2.6
2023-03-22T09:49:09.510Z,2
2023-03-22T09:51:11.559Z,3.2
2023-03-22T09:53:13.610Z,2.8
2023-03-22T09:55:15.658Z,2.4
2023-03-22T10:01:25.210Z,2.6
2023-03-22T10:03:27.029Z,2.7
2023-03-22T10:05:29.090Z,2.8
2023-03-22T10:09:33.187Z,2.6
2023-03-22T10:13:37.412Z,2.5
2023-03-22T10:15:43.000Z,3.1
2023-03-22T10:17:44.659Z,3.8
2023-03-22T10:19:46.701Z,2.9
2023-03-22T10:20:49.291Z,3
2023-03-22T10:22:53.291Z,2.7
2023-03-22T10:24:53.401Z,2.4
2023-03-22T10:26:55.484Z,3
2023-03-22T10:29:02.769Z,3.2
2023-03-22T10:31:05.595Z,2.5
2023-03-22T10:33:04.868Z,2.9
2023-03-22T10:35:06.892Z,3.2
2023-03-22T10:37:08.988Z,2.8
2023-03-22T10:39:11.133Z,2.2
2023-03-22T10:41:13.272Z,3.4
2023-03-22T10:43:18.683Z,3.5
2023-03-22T10:45:20.773Z,3.2
2023-03-22T10:47:22.798Z,4
2023-03-22T10:49:24.912Z,3.6
2023-03-22T10:51:26.988Z,5.8
2023-03-22T10:53:29.113Z,5.9
2023-03-22T10:55:31.146Z,3.2
2023-03-22T10:57:36.464Z,3.5
2023-03-22T10:59:38.508Z,2.4
2023-03-22T11:01:40.718Z,3.3
2023-03-22T11:05:44.842Z,3.2
2023-03-22T11:07:46.884Z,2.6
2023-03-22T11:09:49.034Z,3.3
2023-03-22T11:13:56.586Z,4.3
2023-03-22T11:15:58.729Z,3.4
2023-03-22T11:21:05.705Z,4.3
2023-03-22T11:23:07.723Z,2.9
2023-03-22T11:29:17.105Z,2.5
2023-03-22T11:31:19.319Z,3
2023-03-22T11:33:21.408Z,2.9
2023-03-22T11:35:23.659Z,2.6
2023-03-22T11:37:25.688Z,3.3
2023-03-22T11:39:31.079Z,4.1
2023-03-22T11:41:33.089Z,2.9
2023-03-22T11:43:35.151Z,3.1
2023-03-22T11:45:37.487Z,2.2
2023-03-22T11:47:39.602Z,2.6
2023-03-22T11:49:41.565Z,3.2
2023-03-22T11:51:43.708Z,2.9
2023-03-22T11:53:48.985Z,3.5
2023-03-22T11:55:51.116Z,2.7
2023-03-22T11:57:53.152Z,3.6
2023-03-22T11:59:55.298Z,3.8
2023-03-22T12:01:57.418Z,3
2023-03-22T12:08:07.012Z,2.7
2023-03-22T12:10:09.039Z,3.2
2023-03-22T12:12:11.157Z,2.6
2023-03-22T12:13:13.744Z,1.9
2023-03-22T12:17:17.930Z,1.7
2023-03-22T12:21:25.351Z,2.4
2023-03-22T12:23:27.483Z,2.9
2023-03-22T12:25:29.442Z,2.7
2023-03-22T12:33:38.027Z,2.1
2023-03-22T12:35:43.776Z,3
2023-03-22T12:39:47.596Z,2.8
2023-03-22T12:41:49.719Z,2.4
2023-03-22T12:45:54.026Z,3.2
2023-03-22T12:50:01.230Z,2.6
2023-03-22T12:56:07.595Z,2.9
2023-03-22T12:58:09.722Z,2
2023-03-22T13:00:11.885Z,2.8
2023-03-22T13:02:13.934Z,1.8
2023-03-22T13:04:19.232Z,2.5
2023-03-22T13:06:21.366Z,2.4
2023-03-22T13:08:23.513Z,2.4
2023-03-22T13:10:52.258Z,2.8
2023-03-22T13:12:54.381Z,3
2023-03-22T13:17:01.663Z,2.2
2023-03-22T13:25:10.229Z,2.6
2023-03-22T13:27:12.402Z,3.5
2023-03-22T13:31:19.805Z,2.5
2023-03-22T13:33:21.870Z,2.7
2023-03-22T13:35:24.156Z,2.1
2023-03-22T13:37:26.034Z,4.2
2023-03-22T13:39:28.202Z,3
2023-03-22T13:41:30.239Z,3.8
2023-03-22T13:43:32.315Z,2.9
2023-03-22T13:45:37.502Z,2.9
2023-03-22T13:47:39.653Z,2.8
2023-03-22T13:49:41.773Z,2.9
2023-03-22T13:51:43.927Z,3.1
2023-03-22T13:53:46.000Z,2.6
2023-03-22T13:55:48.134Z,2.7
2023-03-22T13:57:50.314Z,2.9
2023-03-22T14:01:57.834Z,2.7
2023-03-22T14:04:00.025Z,3
2023-03-22T14:05:02.555Z,2.6
2023-03-22T14:07:04.625Z,2.8
2023-03-22T14:09:06.748Z,3.8
2023-03-22T14:11:08.885Z,3.1
2023-03-22T14:13:14.100Z,4.3
2023-03-22T14:15:16.132Z,3.1
2023-03-22T14:17:18.307Z,2.4
2023-03-22T14:19:20.343Z,3.8
2023-03-22T14:21:22.512Z,3.8
2023-03-22T14:52:02.925Z,3.6
2023-03-22T14:56:09.622Z,3.4
2023-03-22T15:00:13.918Z,3.7
2023-03-22T15:01:16.618Z,3.9
2023-03-22T15:03:18.953Z,5.1
2023-03-22T15:05:20.799Z,3.9
2023-03-22T15:11:30.379Z,4.6
2023-03-22T15:13:32.535Z,4.5
2023-03-22T15:15:34.729Z,3.7
2023-03-22T15:17:37.517Z,4.4
2023-03-22T15:19:38.858Z,4.2
2023-03-22T15:21:40.880Z,4.1
2023-03-22T15:23:46.188Z,5.2
2023-03-22T15:25:48.323Z,5.3
2023-03-22T15:27:50.370Z,4.3
2023-03-22T15:29:52.413Z,4.2
2023-03-22T15:31:54.514Z,4.2
2023-03-22T15:33:56.514Z,4.4
2023-03-22T15:38:03.974Z,4.8
2023-03-22T15:40:06.126Z,5
2023-03-22T15:42:08.158Z,4.4
2023-03-22T15:44:10.169Z,5.1
2023-03-22T15:46:12.400Z,5.4
2023-03-22T15:48:14.368Z,4.5
2023-03-22T15:54:23.861Z,3.8
2023-03-22T15:56:29.105Z,3.7
2023-03-22T15:57:28.693Z,4.3
2023-03-22T16:01:32.898Z,4.5
2023-03-22T16:03:35.069Z,4.2
2023-03-22T16:05:40.317Z,4.2
2023-03-22T16:07:42.255Z,4.9
2023-03-22T16:11:46.433Z,4.8
2023-03-22T16:13:48.472Z,4.7
2023-03-22T16:15:50.534Z,4.9
2023-03-22T16:17:52.673Z,4
2023-03-22T16:19:58.006Z,6.1
2023-03-22T16:21:59.986Z,5
2023-03-22T16:24:02.129Z,5
2023-03-22T16:28:06.406Z,5.1
2023-03-22T16:30:08.445Z,4.5
2023-03-22T16:32:10.570Z,4.7
2023-03-22T16:36:17.813Z,3.1
2023-03-22T16:38:19.891Z,4.4
2023-03-22T16:40:21.939Z,4.5
2023-03-22T16:42:24.413Z,6
2023-03-22T16:44:26.091Z,4.5
2023-03-22T16:46:28.276Z,4.5
2023-03-22T16:48:33.810Z,5.1
2023-03-22T16:50:35.559Z,5.2
2023-03-22T16:55:06.540Z,5
2023-03-22T17:05:21.150Z,4
2023-03-22T17:07:22.538Z,4.5
2023-03-22T17:09:24.624Z,4.4
2023-03-22T17:11:26.724Z,3.9
2023-03-22T17:17:36.158Z,5.5
2023-03-22T17:19:38.190Z,5.2
2023-03-22T17:27:46.669Z,4.1
2023-03-22T17:42:04.894Z,4.3
2023-03-22T17:46:57.350Z,7.1
2023-03-22T17:48:14.424Z,5.7
2023-03-22T17:49:17.036Z,6.3
2023-03-22T17:51:19.145Z,5.2
2023-03-22T17:53:48.889Z,5.8
2023-03-22T17:57:56.185Z,6.2
2023-03-22T18:07:39.302Z,6.2
2023-03-22T18:11:46.540Z,7.6
2023-03-22T18:13:52.143Z,7.5
2023-03-22T18:15:50.745Z,7.3
2023-03-22T18:21:57.052Z,6.6
2023-03-22T18:30:08.546Z,6.3
2023-03-22T18:32:17.814Z,5.9
2023-03-22T18:34:12.832Z,6.7
2023-03-22T18:41:01.426Z,6
2023-03-22T18:44:26.491Z,6.4
2023-03-22T18:45:47.228Z,6.7
2023-03-22T18:47:31.220Z,7.5
2023-03-22T18:55:49.165Z,6.2
2023-03-22T19:03:51.433Z,6.6
2023-03-22T19:05:53.645Z,6.3
2023-03-22T19:08:14.548Z,6.9
2023-03-22T19:16:07.253Z,7.5
2023-03-22T19:18:09.321Z,5.9
2023-03-22T19:20:11.374Z,7.1
2023-03-22T19:22:16.708Z,8.6
2023-03-22T19:26:22.231Z,8
2023-03-22T19:28:27.172Z,8.3
2023-03-22T19:30:25.547Z,6.4
2023-03-22T19:32:27.701Z,9.1
2023-03-22T19:34:29.810Z,6.4
2023-03-22T19:36:35.023Z,10.3
2023-03-22T19:43:43.752Z,10.1
2023-03-22T19:45:45.748Z,8.8
2023-03-22T19:55:59.598Z,9.1
2023-03-22T19:58:01.732Z,8.4
2023-03-22T20:08:15.175Z,8.8
2023-03-22T20:10:17.227Z,8.4
2023-03-22T20:14:21.376Z,6.6
2023-03-22T20:20:30.850Z,8.1
2023-03-22T20:22:32.998Z,9.5
2023-03-22T20:24:35.032Z,11.1
2023-03-22T20:26:38.744Z,9.4
2023-03-22T20:28:40.818Z,7.6
2023-03-22T20:30:42.908Z,8.9
2023-03-22T20:32:48.830Z,8.3
2023-03-22T20:34:50.433Z,9.2
2023-03-22T20:39:21.297Z,10.3
2023-03-22T20:41:23.420Z,8.6
2023-03-22T20:45:30.770Z,9.6
2023-03-22T20:47:33.450Z,8.9
2023-03-22T20:53:39.144Z,8.6
2023-03-22T20:55:41.517Z,9.2
2023-03-22T20:57:43.424Z,9.5
2023-03-22T20:59:48.815Z,9.9
2023-03-22T21:01:50.957Z,9.4
2023-03-22T21:18:11.326Z,11.1
2023-03-22T21:20:20.681Z,8.1
2023-03-22T21:22:15.396Z,9.7
2023-03-22T21:24:17.528Z,10
2023-03-22T21:26:19.575Z,10.1
2023-03-22T21:28:24.967Z,11.3
2023-03-22T21:32:29.231Z,12.4
2023-03-22T21:33:31.971Z,12
2023-03-22T21:35:34.075Z,11.9
2023-03-22T21:39:38.359Z,11.1
2023-03-22T21:43:45.784Z,11.2
2023-03-22T21:45:47.817Z,11.8
2023-03-22T21:47:49.933Z,12.2
2023-03-22T22:06:11.998Z,8.5
2023-03-22T22:08:14.027Z,8.8
2023-03-22T22:10:19.410Z,9.4
2023-03-22T22:12:21.561Z,10.9
2023-03-22T22:14:23.694Z,11.5
2023-03-22T22:16:25.742Z,7.6
2023-03-22T22:18:27.900Z,9.8
2023-03-22T22:20:30.037Z,10.2
2023-03-22T22:22:32.174Z,11.6
2023-03-22T22:24:37.458Z,10.1
2023-03-22T22:26:39.619Z,8.2
2023-03-22T22:28:41.744Z,10.1
2023-03-22T22:29:44.327Z,9.2
2023-03-22T22:31:46.471Z,9.5
2023-03-22T22:35:50.687Z,7.9
2023-03-22T22:37:55.938Z,8.8
2023-03-22T22:39:58.093Z,8.4
2023-03-22T22:42:00.212Z,7.7
2023-03-22T22:44:02.373Z,7.2
2023-03-22T22:50:09.630Z,7
2023-03-22T22:52:14.922Z,6.8
2023-03-22T22:58:21.142Z,7.8
2023-03-22T23:06:32.834Z,6.9
2023-03-22T23:08:34.919Z,6
2023-03-22T23:12:39.140Z,6.8
2023-03-22T23:16:43.292Z,6.4
2023-03-22T23:18:45.333Z,6.3
2023-03-22T23:20:50.723Z,5.2
2023-03-22T23:22:52.766Z,5.8
2023-03-22T23:24:54.823Z,6
2023-03-22T23:25:57.501Z,6.9
2023-03-22T23:32:03.828Z,5.2
2023-03-22T23:34:09.176Z,6.1
2023-03-22T23:36:11.337Z,6.6
2023-03-22T23:38:13.558Z,6.7
2023-03-22T23:40:15.592Z,5.4
2023-03-22T23:50:29.386Z,6.1
2023-03-22T23:52:31.535Z,4.9
2023-03-22T23:54:33.680Z,5.9
2023-03-22T23:56:35.841Z,5.6
